sensor_id;sensor_type;location;lat;lon;timestamp;P1;durP1;ratioP1;P2;durP2;ratioP2
19059;SDS011;9663;48.996;8.334;2023-05-07T00:00:36;4.03;;;1.50;;
19059;SDS011;9663;48.996;8.334;2023-05-07T00:03:02;5.05;;;1.30;;
19059;SDS011;9663;48.996;8.334;2023-05-07T00:05:28;3.25;;;1.38;;
19059;SDS011;9663;48.996;8.334;2023-05-07T00:07:54;2.72;;;1.30;;
19059;SDS011;9663;48.996;8.334;2023-05-07T00:10:20;3.38;;;1.35;;
19059;SDS011;9663;48.996;8.334;2023-05-07T00:12:46;3.60;;;1.35;;
19059;SDS011;9663;48.996;8.334;2023-05-07T00:15:11;2.67;;;1.15;;
19059;SDS011;9663;48.996;8.334;2023-05-07T00:17:37;2.67;;;1.15;;
19059;SDS011;9663;48.996;8.334;2023-05-07T00:20:03;3.67;;;1.40;;
19059;SDS011;9663;48.996;8.334;2023-05-07T00:22:31;3.05;;;1.20;;
19059;SDS011;9663;48.996;8.334;2023-05-07T00:24:57;3.45;;;1.27;;
19059;SDS011;9663;48.996;8.334;2023-05-07T00:27:24;3.30;;;1.20;;
19059;SDS011;9663;48.996;8.334;2023-05-07T00:29:50;3.05;;;1.25;;
19059;SDS011;9663;48.996;8.334;2023-05-07T00:32:16;2.95;;;1.23;;
19059;SDS011;9663;48.996;8.334;2023-05-07T00:34:42;2.63;;;1.20;;
19059;SDS011;9663;48.996;8.334;2023-05-07T00:37:08;2.90;;;1.27;;
19059;SDS011;9663;48.996;8.334;2023-05-07T00:39:34;2.45;;;1.00;;
19059;SDS011;9663;48.996;8.334;2023-05-07T00:42:00;4.05;;;1.40;;
19059;SDS011;9663;48.996;8.334;2023-05-07T00:44:27;2.83;;;1.10;;
19059;SDS011;9663;48.996;8.334;2023-05-07T00:46:54;2.90;;;1.00;;
19059;SDS011;9663;48.996;8.334;2023-05-07T00:49:22;3.33;;;1.30;;
19059;SDS011;9663;48.996;8.334;2023-05-07T00:52:03;4.22;;;1.15;;
19059;SDS011;9663;48.996;8.334;2023-05-07T00:54:31;2.75;;;1.20;;
19059;SDS011;9663;48.996;8.334;2023-05-07T00:56:59;2.78;;;1.15;;
19059;SDS011;9663;48.996;8.334;2023-05-07T00:59:25;3.40;;;1.30;;
19059;SDS011;9663;48.996;8.334;2023-05-07T01:01:51;3.70;;;1.40;;
19059;SDS011;9663;48.996;8.334;2023-05-07T01:04:17;2.58;;;1.10;;
19059;SDS011;9663;48.996;8.334;2023-05-07T01:06:43;3.05;;;1.20;;
19059;SDS011;9663;48.996;8.334;2023-05-07T01:09:11;3.22;;;1.20;;
19059;SDS011;9663;48.996;8.334;2023-05-07T01:11:38;3.28;;;1.30;;
19059;SDS011;9663;48.996;8.334;2023-05-07T01:14:05;3.15;;;1.10;;
19059;SDS011;9663;48.996;8.334;2023-05-07T01:16:32;2.97;;;1.08;;
19059;SDS011;9663;48.996;8.334;2023-05-07T01:18:58;3.33;;;1.23;;
19059;SDS011;9663;48.996;8.334;2023-05-07T01:21:25;2.70;;;1.08;;
19059;SDS011;9663;48.996;8.334;2023-05-07T01:23:52;2.70;;;1.05;;
19059;SDS011;9663;48.996;8.334;2023-05-07T01:26:20;2.75;;;1.00;;
19059;SDS011;9663;48.996;8.334;2023-05-07T01:28:47;2.33;;;1.00;;
19059;SDS011;9663;48.996;8.334;2023-05-07T01:31:12;3.03;;;1.20;;
19059;SDS011;9663;48.996;8.334;2023-05-07T01:33:41;3.33;;;1.20;;
19059;SDS011;9663;48.996;8.334;2023-05-07T01:36:10;3.55;;;1.15;;
19059;SDS011;9663;48.996;8.334;2023-05-07T01:38:38;2.70;;;1.20;;
19059;SDS011;9663;48.996;8.334;2023-05-07T01:41:06;3.33;;;1.42;;
19059;SDS011;9663;48.996;8.334;2023-05-07T01:43:32;2.20;;;0.95;;
19059;SDS011;9663;48.996;8.334;2023-05-07T01:45:58;2.90;;;1.17;;
19059;SDS011;9663;48.996;8.334;2023-05-07T01:48:26;3.53;;;1.40;;
19059;SDS011;9663;48.996;8.334;2023-05-07T01:50:53;2.95;;;1.20;;
19059;SDS011;9663;48.996;8.334;2023-05-07T01:53:20;2.58;;;1.17;;
19059;SDS011;9663;48.996;8.334;2023-05-07T01:55:46;3.22;;;1.25;;
19059;SDS011;9663;48.996;8.334;2023-05-07T01:58:12;3.92;;;1.00;;
19059;SDS011;9663;48.996;8.334;2023-05-07T02:00:37;4.05;;;1.08;;
19059;SDS011;9663;48.996;8.334;2023-05-07T02:03:05;3.67;;;1.10;;
19059;SDS011;9663;48.996;8.334;2023-05-07T02:05:30;4.55;;;1.33;;
19059;SDS011;9663;48.996;8.334;2023-05-07T02:07:56;2.38;;;1.08;;
19059;SDS011;9663;48.996;8.334;2023-05-07T02:10:22;3.80;;;1.30;;
19059;SDS011;9663;48.996;8.334;2023-05-07T02:12:47;3.40;;;1.30;;
19059;SDS011;9663;48.996;8.334;2023-05-07T02:15:13;2.78;;;1.20;;
19059;SDS011;9663;48.996;8.334;2023-05-07T02:17:58;3.40;;;1.25;;
19059;SDS011;9663;48.996;8.334;2023-05-07T02:20:33;3.10;;;1.00;;
19059;SDS011;9663;48.996;8.334;2023-05-07T02:23:00;3.38;;;1.20;;
19059;SDS011;9663;48.996;8.334;2023-05-07T02:25:25;3.25;;;1.20;;
19059;SDS011;9663;48.996;8.334;2023-05-07T02:27:51;3.78;;;1.20;;
19059;SDS011;9663;48.996;8.334;2023-05-07T02:30:17;2.80;;;1.10;;
19059;SDS011;9663;48.996;8.334;2023-05-07T02:32:43;4.10;;;1.20;;
19059;SDS011;9663;48.996;8.334;2023-05-07T02:35:08;2.58;;;1.13;;
19059;SDS011;9663;48.996;8.334;2023-05-07T02:37:34;2.67;;;1.08;;
19059;SDS011;9663;48.996;8.334;2023-05-07T02:40:00;2.63;;;1.10;;
19059;SDS011;9663;48.996;8.334;2023-05-07T02:42:26;2.63;;;1.30;;
19059;SDS011;9663;48.996;8.334;2023-05-07T02:44:51;2.83;;;1.13;;
19059;SDS011;9663;48.996;8.334;2023-05-07T02:47:17;2.70;;;1.20;;
19059;SDS011;9663;48.996;8.334;2023-05-07T02:49:43;2.00;;;0.90;;
19059;SDS011;9663;48.996;8.334;2023-05-07T02:52:09;2.95;;;1.13;;
19059;SDS011;9663;48.996;8.334;2023-05-07T02:54:34;2.42;;;1.10;;
19059;SDS011;9663;48.996;8.334;2023-05-07T02:57:00;3.15;;;1.15;;
19059;SDS011;9663;48.996;8.334;2023-05-07T02:59:27;2.85;;;1.20;;
19059;SDS011;9663;48.996;8.334;2023-05-07T03:01:52;2.60;;;1.10;;
19059;SDS011;9663;48.996;8.334;2023-05-07T03:04:18;3.03;;;1.30;;
19059;SDS011;9663;48.996;8.334;2023-05-07T03:06:43;2.13;;;0.90;;
19059;SDS011;9663;48.996;8.334;2023-05-07T03:09:09;2.75;;;1.10;;
19059;SDS011;9663;48.996;8.334;2023-05-07T03:11:35;2.53;;;1.10;;
19059;SDS011;9663;48.996;8.334;2023-05-07T03:14:01;2.83;;;1.10;;
19059;SDS011;9663;48.996;8.334;2023-05-07T03:16:27;3.20;;;1.10;;
19059;SDS011;9663;48.996;8.334;2023-05-07T03:18:53;3.20;;;1.30;;
19059;SDS011;9663;48.996;8.334;2023-05-07T03:21:19;3.63;;;1.25;;
19059;SDS011;9663;48.996;8.334;2023-05-07T03:23:45;2.40;;;1.00;;
19059;SDS011;9663;48.996;8.334;2023-05-07T03:26:10;4.35;;;1.30;;
19059;SDS011;9663;48.996;8.334;2023-05-07T03:28:36;2.13;;;1.10;;
19059;SDS011;9663;48.996;8.334;2023-05-07T03:31:02;3.17;;;1.23;;
19059;SDS011;9663;48.996;8.334;2023-05-07T03:33:28;2.92;;;1.25;;
19059;SDS011;9663;48.996;8.334;2023-05-07T03:35:53;3.35;;;1.45;;
19059;SDS011;9663;48.996;8.334;2023-05-07T03:38:19;2.85;;;1.13;;
19059;SDS011;9663;48.996;8.334;2023-05-07T03:40:45;3.58;;;1.02;;
19059;SDS011;9663;48.996;8.334;2023-05-07T03:43:11;2.95;;;1.20;;
19059;SDS011;9663;48.996;8.334;2023-05-07T03:45:36;2.35;;;1.05;;
19059;SDS011;9663;48.996;8.334;2023-05-07T03:48:02;3.45;;;1.02;;
19059;SDS011;9663;48.996;8.334;2023-05-07T03:50:28;3.20;;;1.40;;
19059;SDS011;9663;48.996;8.334;2023-05-07T03:52:54;2.65;;;1.10;;
19059;SDS011;9663;48.996;8.334;2023-05-07T03:55:20;2.85;;;1.20;;
19059;SDS011;9663;48.996;8.334;2023-05-07T03:57:45;2.65;;;1.02;;
19059;SDS011;9663;48.996;8.334;2023-05-07T04:00:11;2.67;;;1.10;;
19059;SDS011;9663;48.996;8.334;2023-05-07T04:02:38;3.03;;;1.20;;
19059;SDS011;9663;48.996;8.334;2023-05-07T04:05:03;2.65;;;1.10;;
19059;SDS011;9663;48.996;8.334;2023-05-07T04:07:30;2.95;;;1.10;;
19059;SDS011;9663;48.996;8.334;2023-05-07T04:09:55;3.13;;;1.00;;
19059;SDS011;9663;48.996;8.334;2023-05-07T04:12:21;2.70;;;1.20;;
19059;SDS011;9663;48.996;8.334;2023-05-07T04:14:47;2.20;;;0.95;;
19059;SDS011;9663;48.996;8.334;2023-05-07T04:17:12;2.97;;;1.20;;
19059;SDS011;9663;48.996;8.334;2023-05-07T04:19:38;2.95;;;1.15;;
19059;SDS011;9663;48.996;8.334;2023-05-07T04:22:04;2.30;;;1.08;;
19059;SDS011;9663;48.996;8.334;2023-05-07T04:24:33;2.70;;;1.20;;
19059;SDS011;9663;48.996;8.334;2023-05-07T04:26:58;2.97;;;1.20;;
19059;SDS011;9663;48.996;8.334;2023-05-07T04:29:24;2.83;;;1.08;;
19059;SDS011;9663;48.996;8.334;2023-05-07T04:31:50;3.13;;;1.30;;
19059;SDS011;9663;48.996;8.334;2023-05-07T04:34:15;3.30;;;1.20;;
19059;SDS011;9663;48.996;8.334;2023-05-07T04:36:41;3.10;;;1.30;;
19059;SDS011;9663;48.996;8.334;2023-05-07T04:39:07;2.42;;;1.05;;
19059;SDS011;9663;48.996;8.334;2023-05-07T04:41:33;2.42;;;1.10;;
19059;SDS011;9663;48.996;8.334;2023-05-07T04:44:01;2.33;;;1.00;;
19059;SDS011;9663;48.996;8.334;2023-05-07T04:46:29;2.63;;;1.00;;
19059;SDS011;9663;48.996;8.334;2023-05-07T04:48:55;2.33;;;1.00;;
19059;SDS011;9663;48.996;8.334;2023-05-07T04:51:20;2.47;;;1.10;;
19059;SDS011;9663;48.996;8.334;2023-05-07T04:53:47;2.33;;;1.05;;
19059;SDS011;9663;48.996;8.334;2023-05-07T04:56:13;4.40;;;1.10;;
19059;SDS011;9663;48.996;8.334;2023-05-07T04:58:39;2.80;;;1.10;;
19059;SDS011;9663;48.996;8.334;2023-05-07T05:01:05;2.30;;;0.90;;
19059;SDS011;9663;48.996;8.334;2023-05-07T05:03:31;3.03;;;1.00;;
19059;SDS011;9663;48.996;8.334;2023-05-07T05:05:56;2.92;;;1.00;;
19059;SDS011;9663;48.996;8.334;2023-05-07T05:08:24;2.25;;;1.00;;
19059;SDS011;9663;48.996;8.334;2023-05-07T05:10:50;2.67;;;1.10;;
19059;SDS011;9663;48.996;8.334;2023-05-07T05:13:16;2.72;;;1.17;;
19059;SDS011;9663;48.996;8.334;2023-05-07T05:15:42;2.83;;;1.13;;
19059;SDS011;9663;48.996;8.334;2023-05-07T05:18:08;2.42;;;1.00;;
19059;SDS011;9663;48.996;8.334;2023-05-07T05:20:33;2.55;;;1.10;;
19059;SDS011;9663;48.996;8.334;2023-05-07T05:22:59;3.08;;;1.42;;
19059;SDS011;9663;48.996;8.334;2023-05-07T05:25:25;3.10;;;1.08;;
19059;SDS011;9663;48.996;8.334;2023-05-07T05:27:51;2.88;;;1.30;;
19059;SDS011;9663;48.996;8.334;2023-05-07T05:30:16;2.47;;;1.13;;
19059;SDS011;9663;48.996;8.334;2023-05-07T05:32:42;2.65;;;1.15;;
19059;SDS011;9663;48.996;8.334;2023-05-07T05:35:08;2.65;;;1.25;;
19059;SDS011;9663;48.996;8.334;2023-05-07T05:37:33;2.85;;;1.10;;
19059;SDS011;9663;48.996;8.334;2023-05-07T05:39:59;2.78;;;1.20;;
19059;SDS011;9663;48.996;8.334;2023-05-07T05:42:25;3.53;;;1.52;;
19059;SDS011;9663;48.996;8.334;2023-05-07T05:44:50;3.63;;;1.40;;
19059;SDS011;9663;48.996;8.334;2023-05-07T05:47:16;2.92;;;1.30;;
19059;SDS011;9663;48.996;8.334;2023-05-07T05:49:41;6.22;;;1.30;;
19059;SDS011;9663;48.996;8.334;2023-05-07T05:52:08;2.67;;;1.10;;
19059;SDS011;9663;48.996;8.334;2023-05-07T05:54:35;3.75;;;1.40;;
19059;SDS011;9663;48.996;8.334;2023-05-07T05:57:00;2.65;;;1.13;;
19059;SDS011;9663;48.996;8.334;2023-05-07T05:59:29;3.25;;;1.30;;
19059;SDS011;9663;48.996;8.334;2023-05-07T06:01:54;2.97;;;1.20;;
19059;SDS011;9663;48.996;8.334;2023-05-07T06:04:20;2.88;;;1.10;;
19059;SDS011;9663;48.996;8.334;2023-05-07T06:06:46;2.53;;;1.10;;
19059;SDS011;9663;48.996;8.334;2023-05-07T06:09:11;3.20;;;1.30;;
19059;SDS011;9663;48.996;8.334;2023-05-07T06:11:37;2.83;;;1.20;;
19059;SDS011;9663;48.996;8.334;2023-05-07T06:14:03;2.90;;;1.20;;
19059;SDS011;9663;48.996;8.334;2023-05-07T06:16:28;2.75;;;1.30;;
19059;SDS011;9663;48.996;8.334;2023-05-07T06:18:54;2.45;;;1.00;;
19059;SDS011;9663;48.996;8.334;2023-05-07T06:21:20;2.33;;;1.13;;
19059;SDS011;9663;48.996;8.334;2023-05-07T06:23:46;2.90;;;1.20;;
19059;SDS011;9663;48.996;8.334;2023-05-07T06:26:11;2.70;;;1.17;;
19059;SDS011;9663;48.996;8.334;2023-05-07T06:28:37;2.25;;;0.95;;
19059;SDS011;9663;48.996;8.334;2023-05-07T06:31:15;2.38;;;1.08;;
19059;SDS011;9663;48.996;8.334;2023-05-07T06:33:47;2.78;;;1.10;;
19059;SDS011;9663;48.996;8.334;2023-05-07T06:36:14;2.60;;;1.10;;
19059;SDS011;9663;48.996;8.334;2023-05-07T06:38:40;2.63;;;1.02;;
19059;SDS011;9663;48.996;8.334;2023-05-07T06:41:06;2.92;;;1.13;;
19059;SDS011;9663;48.996;8.334;2023-05-07T06:43:32;3.42;;;1.15;;
19059;SDS011;9663;48.996;8.334;2023-05-07T06:45:58;2.88;;;1.20;;
19059;SDS011;9663;48.996;8.334;2023-05-07T06:48:24;3.47;;;1.20;;
19059;SDS011;9663;48.996;8.334;2023-05-07T06:50:49;3.13;;;1.33;;
19059;SDS011;9663;48.996;8.334;2023-05-07T06:53:15;3.25;;;1.13;;
19059;SDS011;9663;48.996;8.334;2023-05-07T06:55:41;2.65;;;1.13;;
19059;SDS011;9663;48.996;8.334;2023-05-07T06:58:07;2.45;;;1.10;;
19059;SDS011;9663;48.996;8.334;2023-05-07T07:00:32;3.30;;;1.20;;
19059;SDS011;9663;48.996;8.334;2023-05-07T07:02:58;1.95;;;0.90;;
19059;SDS011;9663;48.996;8.334;2023-05-07T07:05:25;2.72;;;1.10;;
19059;SDS011;9663;48.996;8.334;2023-05-07T07:07:51;2.55;;;1.20;;
19059;SDS011;9663;48.996;8.334;2023-05-07T07:10:19;2.80;;;1.15;;
19059;SDS011;9663;48.996;8.334;2023-05-07T07:12:45;3.60;;;1.25;;
19059;SDS011;9663;48.996;8.334;2023-05-07T07:15:11;3.45;;;1.30;;
19059;SDS011;9663;48.996;8.334;2023-05-07T07:17:38;4.07;;;1.17;;
19059;SDS011;9663;48.996;8.334;2023-05-07T07:20:04;4.13;;;1.10;;
19059;SDS011;9663;48.996;8.334;2023-05-07T07:22:31;1.90;;;0.90;;
19059;SDS011;9663;48.996;8.334;2023-05-07T07:24:56;2.22;;;1.08;;
19059;SDS011;9663;48.996;8.334;2023-05-07T07:27:22;2.97;;;1.30;;
19059;SDS011;9663;48.996;8.334;2023-05-07T07:29:48;3.92;;;1.48;;
19059;SDS011;9663;48.996;8.334;2023-05-07T07:32:13;3.28;;;1.23;;
19059;SDS011;9663;48.996;8.334;2023-05-07T07:34:39;2.85;;;1.30;;
19059;SDS011;9663;48.996;8.334;2023-05-07T07:37:05;2.10;;;1.00;;
19059;SDS011;9663;48.996;8.334;2023-05-07T07:39:34;2.78;;;1.10;;
19059;SDS011;9663;48.996;8.334;2023-05-07T07:42:02;3.13;;;1.17;;
19059;SDS011;9663;48.996;8.334;2023-05-07T07:44:28;3.17;;;1.17;;
19059;SDS011;9663;48.996;8.334;2023-05-07T07:46:54;3.70;;;1.40;;
19059;SDS011;9663;48.996;8.334;2023-05-07T07:49:20;2.95;;;1.25;;
19059;SDS011;9663;48.996;8.334;2023-05-07T07:51:46;2.47;;;1.10;;
19059;SDS011;9663;48.996;8.334;2023-05-07T07:54:11;3.70;;;1.30;;
19059;SDS011;9663;48.996;8.334;2023-05-07T07:56:37;2.90;;;1.20;;
19059;SDS011;9663;48.996;8.334;2023-05-07T07:59:03;3.17;;;1.25;;
19059;SDS011;9663;48.996;8.334;2023-05-07T08:01:29;2.40;;;1.00;;
19059;SDS011;9663;48.996;8.334;2023-05-07T08:03:55;3.22;;;1.23;;
19059;SDS011;9663;48.996;8.334;2023-05-07T08:06:23;2.40;;;1.20;;
19059;SDS011;9663;48.996;8.334;2023-05-07T08:08:51;3.03;;;1.17;;
19059;SDS011;9663;48.996;8.334;2023-05-07T08:11:17;3.35;;;1.42;;
19059;SDS011;9663;48.996;8.334;2023-05-07T08:13:43;2.55;;;1.10;;
19059;SDS011;9663;48.996;8.334;2023-05-07T08:16:09;2.88;;;1.17;;
19059;SDS011;9663;48.996;8.334;2023-05-07T08:18:35;4.07;;;1.20;;
19059;SDS011;9663;48.996;8.334;2023-05-07T08:21:01;2.60;;;1.10;;
19059;SDS011;9663;48.996;8.334;2023-05-07T08:23:27;2.45;;;1.15;;
19059;SDS011;9663;48.996;8.334;2023-05-07T08:25:54;3.47;;;1.20;;
19059;SDS011;9663;48.996;8.334;2023-05-07T08:28:20;2.60;;;1.20;;
19059;SDS011;9663;48.996;8.334;2023-05-07T08:30:46;2.97;;;1.30;;
19059;SDS011;9663;48.996;8.334;2023-05-07T08:33:12;3.00;;;1.10;;
19059;SDS011;9663;48.996;8.334;2023-05-07T08:35:38;2.67;;;1.10;;
19059;SDS011;9663;48.996;8.334;2023-05-07T08:38:04;2.80;;;1.20;;
19059;SDS011;9663;48.996;8.334;2023-05-07T08:40:30;2.80;;;1.30;;
19059;SDS011;9663;48.996;8.334;2023-05-07T08:43:03;3.47;;;1.50;;
19059;SDS011;9663;48.996;8.334;2023-05-07T08:45:31;3.55;;;1.35;;
19059;SDS011;9663;48.996;8.334;2023-05-07T08:47:59;2.35;;;1.00;;
19059;SDS011;9663;48.996;8.334;2023-05-07T08:50:30;2.50;;;0.93;;
19059;SDS011;9663;48.996;8.334;2023-05-07T08:52:56;2.83;;;1.20;;
19059;SDS011;9663;48.996;8.334;2023-05-07T08:55:22;2.80;;;1.20;;
19059;SDS011;9663;48.996;8.334;2023-05-07T08:57:49;3.40;;;1.35;;
19059;SDS011;9663;48.996;8.334;2023-05-07T09:00:17;2.70;;;1.30;;
19059;SDS011;9663;48.996;8.334;2023-05-07T09:02:43;4.25;;;1.30;;
19059;SDS011;9663;48.996;8.334;2023-05-07T09:05:09;2.35;;;1.10;;
19059;SDS011;9663;48.996;8.334;2023-05-07T09:07:34;3.05;;;1.25;;
19059;SDS011;9663;48.996;8.334;2023-05-07T09:10:01;2.80;;;1.13;;
19059;SDS011;9663;48.996;8.334;2023-05-07T09:12:29;2.28;;;1.10;;
19059;SDS011;9663;48.996;8.334;2023-05-07T09:14:55;3.30;;;1.30;;
19059;SDS011;9663;48.996;8.334;2023-05-07T09:17:22;2.33;;;1.08;;
19059;SDS011;9663;48.996;8.334;2023-05-07T09:19:47;2.08;;;0.90;;
19059;SDS011;9663;48.996;8.334;2023-05-07T09:22:13;2.78;;;1.20;;
19059;SDS011;9663;48.996;8.334;2023-05-07T09:24:39;2.72;;;1.10;;
19059;SDS011;9663;48.996;8.334;2023-05-07T09:27:05;2.92;;;1.25;;
19059;SDS011;9663;48.996;8.334;2023-05-07T09:29:35;2.67;;;1.00;;
19059;SDS011;9663;48.996;8.334;2023-05-07T09:32:01;2.28;;;1.10;;
19059;SDS011;9663;48.996;8.334;2023-05-07T09:34:30;3.00;;;1.20;;
19059;SDS011;9663;48.996;8.334;2023-05-07T09:36:56;3.90;;;1.08;;
19059;SDS011;9663;48.996;8.334;2023-05-07T09:39:25;2.88;;;1.10;;
19059;SDS011;9663;48.996;8.334;2023-05-07T09:41:51;2.17;;;0.93;;
19059;SDS011;9663;48.996;8.334;2023-05-07T09:44:19;2.78;;;1.00;;
19059;SDS011;9663;48.996;8.334;2023-05-07T09:46:46;3.35;;;1.10;;
19059;SDS011;9663;48.996;8.334;2023-05-07T09:49:20;2.70;;;0.98;;
19059;SDS011;9663;48.996;8.334;2023-05-07T09:51:49;2.42;;;1.00;;
19059;SDS011;9663;48.996;8.334;2023-05-07T09:54:17;4.05;;;1.00;;
19059;SDS011;9663;48.996;8.334;2023-05-07T09:56:44;2.35;;;1.00;;
19059;SDS011;9663;48.996;8.334;2023-05-07T09:59:14;2.05;;;0.95;;
19059;SDS011;9663;48.996;8.334;2023-05-07T10:01:41;2.40;;;1.00;;
19059;SDS011;9663;48.996;8.334;2023-05-07T10:04:10;2.67;;;1.08;;
19059;SDS011;9663;48.996;8.334;2023-05-07T10:06:36;2.13;;;0.90;;
19059;SDS011;9663;48.996;8.334;2023-05-07T10:09:03;3.17;;;0.90;;
19059;SDS011;9663;48.996;8.334;2023-05-07T10:11:33;2.35;;;1.10;;
19059;SDS011;9663;48.996;8.334;2023-05-07T10:13:59;2.47;;;1.10;;
19059;SDS011;9663;48.996;8.334;2023-05-07T10:16:27;3.28;;;1.00;;
19059;SDS011;9663;48.996;8.334;2023-05-07T10:19:01;2.22;;;1.02;;
19059;SDS011;9663;48.996;8.334;2023-05-07T10:21:35;2.00;;;0.90;;
19059;SDS011;9663;48.996;8.334;2023-05-07T10:24:08;2.17;;;0.82;;
19059;SDS011;9663;48.996;8.334;2023-05-07T10:26:48;3.40;;;1.17;;
19059;SDS011;9663;48.996;8.334;2023-05-07T10:32:53;2.28;;;0.80;;
19059;SDS011;9663;48.996;8.334;2023-05-07T10:35:31;2.22;;;1.00;;
19059;SDS011;9663;48.996;8.334;2023-05-07T10:38:05;3.22;;;1.10;;
19059;SDS011;9663;48.996;8.334;2023-05-07T10:40:32;2.38;;;1.02;;
19059;SDS011;9663;48.996;8.334;2023-05-07T10:42:59;2.22;;;1.08;;
19059;SDS011;9663;48.996;8.334;2023-05-07T10:45:29;3.33;;;1.20;;
19059;SDS011;9663;48.996;8.334;2023-05-07T10:48:13;2.35;;;1.10;;
19059;SDS011;9663;48.996;8.334;2023-05-07T10:50:41;2.40;;;1.10;;
19059;SDS011;9663;48.996;8.334;2023-05-07T10:53:20;2.40;;;1.10;;
19059;SDS011;9663;48.996;8.334;2023-05-07T10:55:50;2.05;;;0.93;;
19059;SDS011;9663;48.996;8.334;2023-05-07T10:58:44;2.95;;;1.10;;
19059;SDS011;9663;48.996;8.334;2023-05-07T11:01:09;2.50;;;1.20;;
19059;SDS011;9663;48.996;8.334;2023-05-07T11:03:37;2.08;;;1.00;;
19059;SDS011;9663;48.996;8.334;2023-05-07T11:06:40;2.42;;;1.00;;
19059;SDS011;9663;48.996;8.334;2023-05-07T11:09:06;3.95;;;1.52;;
19059;SDS011;9663;48.996;8.334;2023-05-07T11:11:45;3.38;;;1.48;;
19059;SDS011;9663;48.996;8.334;2023-05-07T11:17:09;2.15;;;1.00;;
19059;SDS011;9663;48.996;8.334;2023-05-07T11:19:55;2.25;;;1.08;;
19059;SDS011;9663;48.996;8.334;2023-05-07T11:25:01;3.10;;;1.20;;
19059;SDS011;9663;48.996;8.334;2023-05-07T11:27:29;2.75;;;1.20;;
19059;SDS011;9663;48.996;8.334;2023-05-07T11:29:55;2.83;;;1.00;;
19059;SDS011;9663;48.996;8.334;2023-05-07T11:32:29;2.65;;;1.10;;
19059;SDS011;9663;48.996;8.334;2023-05-07T11:34:59;2.30;;;1.00;;
19059;SDS011;9663;48.996;8.334;2023-05-07T11:37:26;2.35;;;1.00;;
19059;SDS011;9663;48.996;8.334;2023-05-07T11:42:36;2.25;;;1.00;;
19059;SDS011;9663;48.996;8.334;2023-05-07T11:45:05;2.10;;;1.00;;
19059;SDS011;9663;48.996;8.334;2023-05-07T11:47:33;1.52;;;0.70;;
19059;SDS011;9663;48.996;8.334;2023-05-07T11:50:06;2.63;;;1.05;;
19059;SDS011;9663;48.996;8.334;2023-05-07T11:52:33;2.42;;;0.90;;
19059;SDS011;9663;48.996;8.334;2023-05-07T11:55:00;2.45;;;1.08;;
19059;SDS011;9663;48.996;8.334;2023-05-07T11:57:28;3.60;;;1.27;;
19059;SDS011;9663;48.996;8.334;2023-05-07T11:59:55;2.70;;;1.17;;
19059;SDS011;9663;48.996;8.334;2023-05-07T12:02:27;2.05;;;0.85;;
19059;SDS011;9663;48.996;8.334;2023-05-07T12:04:53;2.55;;;1.13;;
19059;SDS011;9663;48.996;8.334;2023-05-07T12:07:20;2.42;;;1.10;;
19059;SDS011;9663;48.996;8.334;2023-05-07T12:09:46;1.95;;;0.85;;
19059;SDS011;9663;48.996;8.334;2023-05-07T12:12:13;2.35;;;0.90;;
19059;SDS011;9663;48.996;8.334;2023-05-07T12:14:42;3.55;;;1.20;;
19059;SDS011;9663;48.996;8.334;2023-05-07T12:17:11;1.95;;;0.90;;
19059;SDS011;9663;48.996;8.334;2023-05-07T12:19:39;2.10;;;0.98;;
19059;SDS011;9663;48.996;8.334;2023-05-07T12:22:07;1.98;;;0.90;;
19059;SDS011;9663;48.996;8.334;2023-05-07T12:24:43;2.00;;;0.90;;
19059;SDS011;9663;48.996;8.334;2023-05-07T12:27:15;2.85;;;1.00;;
19059;SDS011;9663;48.996;8.334;2023-05-07T12:29:50;2.42;;;1.00;;
19059;SDS011;9663;48.996;8.334;2023-05-07T12:32:17;1.88;;;0.85;;
19059;SDS011;9663;48.996;8.334;2023-05-07T12:34:46;2.22;;;0.90;;
19059;SDS011;9663;48.996;8.334;2023-05-07T12:37:15;2.40;;;1.10;;
19059;SDS011;9663;48.996;8.334;2023-05-07T12:39:44;2.70;;;1.15;;
19059;SDS011;9663;48.996;8.334;2023-05-07T12:42:14;2.55;;;1.10;;
19059;SDS011;9663;48.996;8.334;2023-05-07T12:44:45;2.00;;;0.80;;
19059;SDS011;9663;48.996;8.334;2023-05-07T12:47:11;17.90;;;6.13;;
19059;SDS011;9663;48.996;8.334;2023-05-07T12:49:40;12.52;;;5.43;;
19059;SDS011;9663;48.996;8.334;2023-05-07T12:52:07;8.63;;;3.60;;
19059;SDS011;9663;48.996;8.334;2023-05-07T12:54:33;4.57;;;1.95;;
19059;SDS011;9663;48.996;8.334;2023-05-07T12:57:07;4.45;;;1.65;;
19059;SDS011;9663;48.996;8.334;2023-05-07T12:59:37;4.10;;;1.73;;
19059;SDS011;9663;48.996;8.334;2023-05-07T13:02:07;4.32;;;1.55;;
19059;SDS011;9663;48.996;8.334;2023-05-07T13:04:34;3.20;;;1.40;;
19059;SDS011;9663;48.996;8.334;2023-05-07T13:07:00;3.70;;;1.20;;
19059;SDS011;9663;48.996;8.334;2023-05-07T13:09:27;3.65;;;1.15;;
19059;SDS011;9663;48.996;8.334;2023-05-07T13:11:56;3.58;;;1.45;;
19059;SDS011;9663;48.996;8.334;2023-05-07T13:14:25;3.70;;;1.40;;
19059;SDS011;9663;48.996;8.334;2023-05-07T13:16:50;3.45;;;1.40;;
19059;SDS011;9663;48.996;8.334;2023-05-07T13:19:16;3.35;;;1.33;;
19059;SDS011;9663;48.996;8.334;2023-05-07T13:21:42;3.88;;;1.38;;
19059;SDS011;9663;48.996;8.334;2023-05-07T13:24:08;2.95;;;1.35;;
19059;SDS011;9663;48.996;8.334;2023-05-07T13:26:34;2.60;;;1.10;;
19059;SDS011;9663;48.996;8.334;2023-05-07T13:29:00;2.97;;;1.20;;
19059;SDS011;9663;48.996;8.334;2023-05-07T13:31:25;3.15;;;1.30;;
19059;SDS011;9663;48.996;8.334;2023-05-07T13:33:51;2.42;;;1.10;;
19059;SDS011;9663;48.996;8.334;2023-05-07T13:36:17;3.17;;;1.30;;
19059;SDS011;9663;48.996;8.334;2023-05-07T13:38:43;3.20;;;1.50;;
19059;SDS011;9663;48.996;8.334;2023-05-07T13:41:09;3.00;;;1.27;;
19059;SDS011;9663;48.996;8.334;2023-05-07T13:43:34;3.10;;;1.42;;
19059;SDS011;9663;48.996;8.334;2023-05-07T13:46:00;3.05;;;1.20;;
19059;SDS011;9663;48.996;8.334;2023-05-07T13:48:26;2.40;;;0.90;;
19059;SDS011;9663;48.996;8.334;2023-05-07T13:50:53;2.47;;;1.10;;
19059;SDS011;9663;48.996;8.334;2023-05-07T13:53:19;2.90;;;1.05;;
19059;SDS011;9663;48.996;8.334;2023-05-07T13:55:44;1.95;;;0.88;;
19059;SDS011;9663;48.996;8.334;2023-05-07T13:58:10;2.15;;;1.10;;
19059;SDS011;9663;48.996;8.334;2023-05-07T14:00:36;3.47;;;1.13;;
19059;SDS011;9663;48.996;8.334;2023-05-07T14:03:02;2.90;;;1.15;;
19059;SDS011;9663;48.996;8.334;2023-05-07T14:05:33;2.58;;;1.10;;
19059;SDS011;9663;48.996;8.334;2023-05-07T14:08:00;3.20;;;1.23;;
19059;SDS011;9663;48.996;8.334;2023-05-07T14:10:26;2.05;;;1.00;;
19059;SDS011;9663;48.996;8.334;2023-05-07T14:12:52;3.30;;;1.25;;
19059;SDS011;9663;48.996;8.334;2023-05-07T14:15:18;5.57;;;1.60;;
19059;SDS011;9663;48.996;8.334;2023-05-07T14:17:44;3.25;;;1.40;;
19059;SDS011;9663;48.996;8.334;2023-05-07T14:20:09;3.47;;;1.52;;
19059;SDS011;9663;48.996;8.334;2023-05-07T14:22:36;2.83;;;1.30;;
19059;SDS011;9663;48.996;8.334;2023-05-07T14:25:02;3.70;;;1.73;;
19059;SDS011;9663;48.996;8.334;2023-05-07T14:27:28;3.33;;;1.35;;
19059;SDS011;9663;48.996;8.334;2023-05-07T14:29:54;3.88;;;1.40;;
19059;SDS011;9663;48.996;8.334;2023-05-07T14:32:20;3.58;;;1.30;;
19059;SDS011;9663;48.996;8.334;2023-05-07T14:34:46;3.35;;;1.38;;
19059;SDS011;9663;48.996;8.334;2023-05-07T14:37:12;2.92;;;1.27;;
19059;SDS011;9663;48.996;8.334;2023-05-07T14:39:38;3.00;;;1.25;;
19059;SDS011;9663;48.996;8.334;2023-05-07T14:42:04;4.00;;;1.10;;
19059;SDS011;9663;48.996;8.334;2023-05-07T14:44:32;2.92;;;1.13;;
19059;SDS011;9663;48.996;8.334;2023-05-07T14:47:02;1.77;;;0.88;;
19059;SDS011;9663;48.996;8.334;2023-05-07T14:49:28;2.83;;;0.80;;
19059;SDS011;9663;48.996;8.334;2023-05-07T14:51:53;2.28;;;0.80;;
19059;SDS011;9663;48.996;8.334;2023-05-07T14:54:23;1.73;;;0.73;;
19059;SDS011;9663;48.996;8.334;2023-05-07T14:56:48;2.10;;;0.80;;
19059;SDS011;9663;48.996;8.334;2023-05-07T14:59:15;2.30;;;0.80;;
19059;SDS011;9663;48.996;8.334;2023-05-07T15:01:43;1.60;;;0.80;;
19059;SDS011;9663;48.996;8.334;2023-05-07T15:04:10;1.52;;;0.70;;
19059;SDS011;9663;48.996;8.334;2023-05-07T15:06:36;1.73;;;0.70;;
19059;SDS011;9663;48.996;8.334;2023-05-07T15:09:02;1.80;;;0.70;;
19059;SDS011;9663;48.996;8.334;2023-05-07T15:11:28;1.67;;;0.90;;